sensor_id;sensor_type;location;lat;lon;timestamp;P1;durP1;ratioP1;P2;durP2;ratioP2
6564;SDS011;3316;44.118;27.258;2024-02-26T00:00:33;12.93;;;8.13;;
6564;SDS011;3316;44.118;27.258;2024-02-26T00:03:00;21.33;;;11.10;;
6564;SDS011;3316;44.118;27.258;2024-02-26T00:05:26;14.83;;;10.53;;
6564;SDS011;3316;44.118;27.258;2024-02-26T00:07:51;23.77;;;12.33;;
6564;SDS011;3316;44.118;27.258;2024-02-26T00:10:17;16.87;;;10.10;;
6564;SDS011;3316;44.118;27.258;2024-02-26T00:12:42;20.57;;;12.13;;
6564;SDS011;3316;44.118;27.258;2024-02-26T00:15:08;18.93;;;11.23;;
6564;SDS011;3316;44.118;27.258;2024-02-26T00:17:34;20.20;;;13.00;;
6564;SDS011;3316;44.118;27.258;2024-02-26T00:19:59;17.70;;;10.07;;
6564;SDS011;3316;44.118;27.258;2024-02-26T00:22:26;19.13;;;11.40;;
6564;SDS011;3316;44.118;27.258;2024-02-26T00:24:51;22.80;;;12.00;;
6564;SDS011;3316;44.118;27.258;2024-02-26T00:27:17;19.57;;;10.97;;
6564;SDS011;3316;44.118;27.258;2024-02-26T00:29:42;24.07;;;13.17;;
6564;SDS011;3316;44.118;27.258;2024-02-26T00:32:07;20.43;;;12.00;;
6564;SDS011;3316;44.118;27.258;2024-02-26T00:34:33;21.73;;;12.17;;
6564;SDS011;3316;44.118;27.258;2024-02-26T00:36:58;18.47;;;11.47;;
6564;SDS011;3316;44.118;27.258;2024-02-26T00:39:24;14.47;;;9.77;;
6564;SDS011;3316;44.118;27.258;2024-02-26T00:41:49;25.10;;;13.67;;
6564;SDS011;3316;44.118;27.258;2024-02-26T00:44:16;19.77;;;11.23;;
6564;SDS011;3316;44.118;27.258;2024-02-26T00:46:42;19.40;;;11.83;;
6564;SDS011;3316;44.118;27.258;2024-02-26T00:49:07;24.30;;;13.13;;
6564;SDS011;3316;44.118;27.258;2024-02-26T00:51:33;16.10;;;11.23;;
6564;SDS011;3316;44.118;27.258;2024-02-26T00:53:58;18.03;;;10.67;;
6564;SDS011;3316;44.118;27.258;2024-02-26T00:56:24;22.77;;;11.53;;
6564;SDS011;3316;44.118;27.258;2024-02-26T00:58:49;17.73;;;11.10;;
6564;SDS011;3316;44.118;27.258;2024-02-26T01:01:14;17.10;;;10.43;;
6564;SDS011;3316;44.118;27.258;2024-02-26T01:03:40;27.10;;;13.50;;
6564;SDS011;3316;44.118;27.258;2024-02-26T01:06:05;19.70;;;12.20;;
6564;SDS011;3316;44.118;27.258;2024-02-26T01:08:31;17.93;;;10.37;;
6564;SDS011;3316;44.118;27.258;2024-02-26T01:10:56;18.70;;;10.97;;
6564;SDS011;3316;44.118;27.258;2024-02-26T01:13:22;17.07;;;9.20;;
6564;SDS011;3316;44.118;27.258;2024-02-26T01:15:47;21.07;;;12.33;;
6564;SDS011;3316;44.118;27.258;2024-02-26T01:18:13;22.30;;;12.47;;
6564;SDS011;3316;44.118;27.258;2024-02-26T01:20:39;22.03;;;11.23;;
6564;SDS011;3316;44.118;27.258;2024-02-26T01:23:04;22.90;;;12.40;;
6564;SDS011;3316;44.118;27.258;2024-02-26T01:25:31;23.67;;;11.23;;
6564;SDS011;3316;44.118;27.258;2024-02-26T01:27:57;17.73;;;11.20;;
6564;SDS011;3316;44.118;27.258;2024-02-26T01:30:22;16.47;;;11.40;;
6564;SDS011;3316;44.118;27.258;2024-02-26T01:32:47;21.97;;;12.30;;
6564;SDS011;3316;44.118;27.258;2024-02-26T01:35:13;21.93;;;13.60;;
6564;SDS011;3316;44.118;27.258;2024-02-26T01:37:38;23.63;;;11.90;;
6564;SDS011;3316;44.118;27.258;2024-02-26T01:40:05;23.47;;;11.67;;
6564;SDS011;3316;44.118;27.258;2024-02-26T01:42:32;17.17;;;10.27;;
6564;SDS011;3316;44.118;27.258;2024-02-26T01:44:58;23.20;;;12.83;;
6564;SDS011;3316;44.118;27.258;2024-02-26T01:47:24;19.90;;;11.23;;
6564;SDS011;3316;44.118;27.258;2024-02-26T01:49:51;17.03;;;11.33;;
6564;SDS011;3316;44.118;27.258;2024-02-26T01:52:17;21.77;;;10.80;;
6564;SDS011;3316;44.118;27.258;2024-02-26T01:54:43;24.03;;;13.17;;
6564;SDS011;3316;44.118;27.258;2024-02-26T01:57:10;23.27;;;13.03;;
6564;SDS011;3316;44.118;27.258;2024-02-26T01:59:37;26.33;;;14.90;;
6564;SDS011;3316;44.118;27.258;2024-02-26T02:02:05;19.93;;;12.83;;
6564;SDS011;3316;44.118;27.258;2024-02-26T02:04:34;21.80;;;13.07;;
6564;SDS011;3316;44.118;27.258;2024-02-26T02:07:01;19.73;;;13.30;;
6564;SDS011;3316;44.118;27.258;2024-02-26T02:09:27;20.53;;;11.57;;
6564;SDS011;3316;44.118;27.258;2024-02-26T02:11:53;22.27;;;11.87;;
6564;SDS011;3316;44.118;27.258;2024-02-26T02:14:19;20.30;;;13.40;;
6564;SDS011;3316;44.118;27.258;2024-02-26T02:16:45;17.17;;;11.07;;
6564;SDS011;3316;44.118;27.258;2024-02-26T02:19:13;20.07;;;11.73;;
6564;SDS011;3316;44.118;27.258;2024-02-26T02:21:38;19.97;;;10.47;;
6564;SDS011;3316;44.118;27.258;2024-02-26T02:24:04;23.77;;;12.43;;
6564;SDS011;3316;44.118;27.258;2024-02-26T02:26:29;19.30;;;11.67;;
6564;SDS011;3316;44.118;27.258;2024-02-26T02:28:55;21.70;;;12.90;;
6564;SDS011;3316;44.118;27.258;2024-02-26T02:31:20;19.00;;;11.37;;
6564;SDS011;3316;44.118;27.258;2024-02-26T02:33:46;17.27;;;9.70;;
6564;SDS011;3316;44.118;27.258;2024-02-26T02:36:11;22.20;;;12.77;;
6564;SDS011;3316;44.118;27.258;2024-02-26T02:38:37;17.87;;;11.27;;
6564;SDS011;3316;44.118;27.258;2024-02-26T02:41:03;18.23;;;9.23;;
6564;SDS011;3316;44.118;27.258;2024-02-26T02:43:29;17.40;;;10.17;;
6564;SDS011;3316;44.118;27.258;2024-02-26T02:45:54;21.33;;;12.30;;
6564;SDS011;3316;44.118;27.258;2024-02-26T02:48:20;21.23;;;11.57;;
6564;SDS011;3316;44.118;27.258;2024-02-26T02:50:45;17.93;;;12.03;;
6564;SDS011;3316;44.118;27.258;2024-02-26T02:53:11;20.97;;;10.20;;
6564;SDS011;3316;44.118;27.258;2024-02-26T02:55:37;20.90;;;8.90;;
6564;SDS011;3316;44.118;27.258;2024-02-26T02:58:02;20.57;;;11.37;;
6564;SDS011;3316;44.118;27.258;2024-02-26T03:00:28;15.50;;;9.00;;
6564;SDS011;3316;44.118;27.258;2024-02-26T03:02:53;19.30;;;11.57;;
6564;SDS011;3316;44.118;27.258;2024-02-26T03:05:19;19.30;;;11.80;;
6564;SDS011;3316;44.118;27.258;2024-02-26T03:07:44;24.10;;;11.97;;
6564;SDS011;3316;44.118;27.258;2024-02-26T03:10:10;12.37;;;7.90;;
6564;SDS011;3316;44.118;27.258;2024-02-26T03:12:35;25.53;;;13.60;;
6564;SDS011;3316;44.118;27.258;2024-02-26T03:15:01;21.77;;;12.87;;
6564;SDS011;3316;44.118;27.258;2024-02-26T03:17:30;19.63;;;11.27;;
6564;SDS011;3316;44.118;27.258;2024-02-26T03:19:56;14.57;;;9.00;;
6564;SDS011;3316;44.118;27.258;2024-02-26T03:22:21;24.17;;;12.43;;
6564;SDS011;3316;44.118;27.258;2024-02-26T03:24:47;18.27;;;11.00;;
6564;SDS011;3316;44.118;27.258;2024-02-26T03:27:13;19.63;;;12.90;;
6564;SDS011;3316;44.118;27.258;2024-02-26T03:29:39;23.20;;;13.00;;
6564;SDS011;3316;44.118;27.258;2024-02-26T03:32:05;21.90;;;13.03;;
6564;SDS011;3316;44.118;27.258;2024-02-26T03:34:31;22.30;;;13.40;;
6564;SDS011;3316;44.118;27.258;2024-02-26T03:36:59;19.03;;;13.27;;
6564;SDS011;3316;44.118;27.258;2024-02-26T03:39:25;20.47;;;14.30;;
6564;SDS011;3316;44.118;27.258;2024-02-26T03:41:50;24.67;;;13.83;;
6564;SDS011;3316;44.118;27.258;2024-02-26T03:44:16;20.17;;;11.97;;
6564;SDS011;3316;44.118;27.258;2024-02-26T03:46:41;23.03;;;12.70;;
6564;SDS011;3316;44.118;27.258;2024-02-26T03:49:09;20.53;;;12.57;;
6564;SDS011;3316;44.118;27.258;2024-02-26T03:51:35;22.77;;;12.50;;
6564;SDS011;3316;44.118;27.258;2024-02-26T03:54:00;22.93;;;14.10;;
6564;SDS011;3316;44.118;27.258;2024-02-26T03:56:26;19.63;;;12.23;;
6564;SDS011;3316;44.118;27.258;2024-02-26T03:58:52;17.20;;;11.23;;
6564;SDS011;3316;44.118;27.258;2024-02-26T04:01:18;19.40;;;11.37;;
6564;SDS011;3316;44.118;27.258;2024-02-26T04:03:43;19.03;;;11.70;;
6564;SDS011;3316;44.118;27.258;2024-02-26T04:06:09;19.27;;;10.53;;
6564;SDS011;3316;44.118;27.258;2024-02-26T04:08:35;19.23;;;11.27;;
6564;SDS011;3316;44.118;27.258;2024-02-26T04:11:01;22.60;;;11.50;;
6564;SDS011;3316;44.118;27.258;2024-02-26T04:13:32;20.10;;;11.33;;
6564;SDS011;3316;44.118;27.258;2024-02-26T04:15:57;23.63;;;11.70;;
6564;SDS011;3316;44.118;27.258;2024-02-26T04:18:23;18.30;;;11.57;;
6564;SDS011;3316;44.118;27.258;2024-02-26T04:20:48;19.10;;;10.90;;
6564;SDS011;3316;44.118;27.258;2024-02-26T04:23:13;19.50;;;10.23;;
6564;SDS011;3316;44.118;27.258;2024-02-26T04:25:39;13.87;;;9.33;;
6564;SDS011;3316;44.118;27.258;2024-02-26T04:28:04;18.27;;;10.87;;
6564;SDS011;3316;44.118;27.258;2024-02-26T04:30:30;15.53;;;8.90;;
6564;SDS011;3316;44.118;27.258;2024-02-26T04:32:55;20.03;;;10.30;;
6564;SDS011;3316;44.118;27.258;2024-02-26T04:35:21;17.50;;;10.27;;
6564;SDS011;3316;44.118;27.258;2024-02-26T04:37:46;17.57;;;10.53;;
6564;SDS011;3316;44.118;27.258;2024-02-26T04:40:12;16.47;;;10.47;;
6564;SDS011;3316;44.118;27.258;2024-02-26T04:42:37;17.27;;;11.40;;
6564;SDS011;3316;44.118;27.258;2024-02-26T04:45:03;17.63;;;10.90;;
6564;SDS011;3316;44.118;27.258;2024-02-26T04:47:29;19.83;;;10.73;;
6564;SDS011;3316;44.118;27.258;2024-02-26T04:49:55;17.30;;;11.00;;
6564;SDS011;3316;44.118;27.258;2024-02-26T04:52:21;16.53;;;10.00;;
6564;SDS011;3316;44.118;27.258;2024-02-26T04:54:46;19.73;;;10.60;;
6564;SDS011;3316;44.118;27.258;2024-02-26T04:57:12;19.57;;;11.37;;
6564;SDS011;3316;44.118;27.258;2024-02-26T04:59:37;19.53;;;11.73;;
6564;SDS011;3316;44.118;27.258;2024-02-26T05:02:03;26.97;;;12.60;;
6564;SDS011;3316;44.118;27.258;2024-02-26T05:04:28;15.77;;;11.27;;
6564;SDS011;3316;44.118;27.258;2024-02-26T05:06:54;24.20;;;12.67;;
6564;SDS011;3316;44.118;27.258;2024-02-26T05:09:19;23.57;;;12.73;;
6564;SDS011;3316;44.118;27.258;2024-02-26T05:11:45;22.50;;;12.33;;
6564;SDS011;3316;44.118;27.258;2024-02-26T05:14:10;21.83;;;12.33;;
6564;SDS011;3316;44.118;27.258;2024-02-26T05:16:36;17.73;;;11.77;;
6564;SDS011;3316;44.118;27.258;2024-02-26T05:19:01;22.63;;;12.70;;
6564;SDS011;3316;44.118;27.258;2024-02-26T05:21:28;20.07;;;11.93;;
6564;SDS011;3316;44.118;27.258;2024-02-26T05:23:53;23.57;;;13.37;;
6564;SDS011;3316;44.118;27.258;2024-02-26T05:26:19;26.03;;;13.43;;
6564;SDS011;3316;44.118;27.258;2024-02-26T05:28:46;21.40;;;13.03;;
6564;SDS011;3316;44.118;27.258;2024-02-26T05:31:15;24.23;;;12.27;;
6564;SDS011;3316;44.118;27.258;2024-02-26T05:33:40;23.37;;;12.30;;
6564;SDS011;3316;44.118;27.258;2024-02-26T05:36:06;22.70;;;13.27;;
6564;SDS011;3316;44.118;27.258;2024-02-26T05:38:32;27.87;;;12.93;;
6564;SDS011;3316;44.118;27.258;2024-02-26T05:40:58;20.50;;;13.13;;
6564;SDS011;3316;44.118;27.258;2024-02-26T05:43:26;23.40;;;13.30;;
6564;SDS011;3316;44.118;27.258;2024-02-26T05:45:52;21.77;;;12.57;;
6564;SDS011;3316;44.118;27.258;2024-02-26T05:48:17;29.47;;;14.90;;
6564;SDS011;3316;44.118;27.258;2024-02-26T05:50:44;26.23;;;15.27;;
6564;SDS011;3316;44.118;27.258;2024-02-26T05:53:10;26.13;;;11.27;;
6564;SDS011;3316;44.118;27.258;2024-02-26T05:55:36;21.50;;;12.90;;
6564;SDS011;3316;44.118;27.258;2024-02-26T05:58:02;17.63;;;11.03;;
6564;SDS011;3316;44.118;27.258;2024-02-26T06:00:27;22.63;;;12.40;;
6564;SDS011;3316;44.118;27.258;2024-02-26T06:02:53;18.13;;;9.77;;
6564;SDS011;3316;44.118;27.258;2024-02-26T06:05:19;25.33;;;12.47;;
6564;SDS011;3316;44.118;27.258;2024-02-26T06:07:44;25.43;;;13.83;;
6564;SDS011;3316;44.118;27.258;2024-02-26T06:10:10;12.80;;;8.43;;
6564;SDS011;3316;44.118;27.258;2024-02-26T06:12:35;17.23;;;10.30;;
6564;SDS011;3316;44.118;27.258;2024-02-26T06:15:01;22.53;;;12.30;;
6564;SDS011;3316;44.118;27.258;2024-02-26T06:17:26;19.33;;;11.10;;
6564;SDS011;3316;44.118;27.258;2024-02-26T06:19:53;23.00;;;12.70;;
6564;SDS011;3316;44.118;27.258;2024-02-26T06:22:19;18.87;;;9.37;;
6564;SDS011;3316;44.118;27.258;2024-02-26T06:24:44;22.33;;;10.37;;
6564;SDS011;3316;44.118;27.258;2024-02-26T06:27:10;22.10;;;11.43;;
6564;SDS011;3316;44.118;27.258;2024-02-26T06:29:35;18.67;;;9.20;;
6564;SDS011;3316;44.118;27.258;2024-02-26T06:32:00;18.57;;;10.37;;
6564;SDS011;3316;44.118;27.258;2024-02-26T06:34:26;18.73;;;10.57;;
6564;SDS011;3316;44.118;27.258;2024-02-26T06:36:51;20.03;;;12.37;;
6564;SDS011;3316;44.118;27.258;2024-02-26T06:39:17;23.60;;;12.53;;
6564;SDS011;3316;44.118;27.258;2024-02-26T06:41:43;17.40;;;8.97;;
6564;SDS011;3316;44.118;27.258;2024-02-26T06:44:08;21.40;;;10.83;;
6564;SDS011;3316;44.118;27.258;2024-02-26T06:46:34;12.97;;;7.93;;
6564;SDS011;3316;44.118;27.258;2024-02-26T06:48:59;17.23;;;10.20;;
6564;SDS011;3316;44.118;27.258;2024-02-26T06:51:25;20.30;;;9.90;;
6564;SDS011;3316;44.118;27.258;2024-02-26T06:53:50;19.00;;;10.07;;
6564;SDS011;3316;44.118;27.258;2024-02-26T06:56:16;16.70;;;9.40;;
6564;SDS011;3316;44.118;27.258;2024-02-26T06:58:41;15.37;;;8.93;;
6564;SDS011;3316;44.118;27.258;2024-02-26T07:01:07;21.37;;;10.80;;
6564;SDS011;3316;44.118;27.258;2024-02-26T07:03:33;20.80;;;10.53;;
6564;SDS011;3316;44.118;27.258;2024-02-26T07:05:59;23.10;;;10.03;;
6564;SDS011;3316;44.118;27.258;2024-02-26T07:08:24;15.50;;;7.87;;
6564;SDS011;3316;44.118;27.258;2024-02-26T07:10:50;17.50;;;10.27;;
6564;SDS011;3316;44.118;27.258;2024-02-26T07:13:15;12.53;;;8.10;;
6564;SDS011;3316;44.118;27.258;2024-02-26T07:15:41;20.90;;;8.80;;
6564;SDS011;3316;44.118;27.258;2024-02-26T07:18:06;13.60;;;8.13;;
6564;SDS011;3316;44.118;27.258;2024-02-26T07:20:32;15.83;;;8.83;;
6564;SDS011;3316;44.118;27.258;2024-02-26T07:22:58;17.20;;;9.07;;
6564;SDS011;3316;44.118;27.258;2024-02-26T07:25:23;20.00;;;9.80;;
6564;SDS011;3316;44.118;27.258;2024-02-26T07:27:49;16.23;;;9.10;;
6564;SDS011;3316;44.118;27.258;2024-02-26T07:30:17;20.77;;;8.67;;
6564;SDS011;3316;44.118;27.258;2024-02-26T07:32:43;21.03;;;9.70;;
6564;SDS011;3316;44.118;27.258;2024-02-26T07:35:09;24.10;;;8.67;;
6564;SDS011;3316;44.118;27.258;2024-02-26T07:37:35;16.73;;;8.00;;
6564;SDS011;3316;44.118;27.258;2024-02-26T07:40:00;17.10;;;8.10;;
6564;SDS011;3316;44.118;27.258;2024-02-26T07:42:26;13.30;;;7.40;;
6564;SDS011;3316;44.118;27.258;2024-02-26T07:44:52;16.50;;;7.77;;
6564;SDS011;3316;44.118;27.258;2024-02-26T07:47:17;17.83;;;7.83;;
6564;SDS011;3316;44.118;27.258;2024-02-26T07:49:43;17.13;;;8.50;;
6564;SDS011;3316;44.118;27.258;2024-02-26T07:52:09;20.07;;;8.67;;
6564;SDS011;3316;44.118;27.258;2024-02-26T07:54:35;27.77;;;8.53;;
6564;SDS011;3316;44.118;27.258;2024-02-26T07:57:00;18.47;;;8.63;;
6564;SDS011;3316;44.118;27.258;2024-02-26T07:59:28;17.17;;;8.60;;
6564;SDS011;3316;44.118;27.258;2024-02-26T08:01:54;18.40;;;8.50;;
6564;SDS011;3316;44.118;27.258;2024-02-26T08:04:19;15.90;;;8.53;;
6564;SDS011;3316;44.118;27.258;2024-02-26T08:06:45;14.93;;;7.87;;
6564;SDS011;3316;44.118;27.258;2024-02-26T08:09:10;17.30;;;8.63;;
6564;SDS011;3316;44.118;27.258;2024-02-26T08:11:37;18.57;;;7.40;;
6564;SDS011;3316;44.118;27.258;2024-02-26T08:14:03;16.57;;;7.83;;
6564;SDS011;3316;44.118;27.258;2024-02-26T08:16:28;18.37;;;7.37;;
6564;SDS011;3316;44.118;27.258;2024-02-26T08:18:54;15.20;;;8.03;;
6564;SDS011;3316;44.118;27.258;2024-02-26T08:21:20;13.90;;;6.97;;
6564;SDS011;3316;44.118;27.258;2024-02-26T08:23:45;12.50;;;5.57;;
6564;SDS011;3316;44.118;27.258;2024-02-26T08:26:11;14.10;;;6.73;;
6564;SDS011;3316;44.118;27.258;2024-02-26T08:28:37;11.57;;;6.27;;
6564;SDS011;3316;44.118;27.258;2024-02-26T08:31:03;10.97;;;5.80;;
6564;SDS011;3316;44.118;27.258;2024-02-26T08:33:28;14.10;;;6.67;;
6564;SDS011;3316;44.118;27.258;2024-02-26T08:35:54;14.40;;;6.70;;
6564;SDS011;3316;44.118;27.258;2024-02-26T08:38:19;14.63;;;7.10;;
6564;SDS011;3316;44.118;27.258;2024-02-26T08:40:45;15.03;;;6.53;;
6564;SDS011;3316;44.118;27.258;2024-02-26T08:43:10;15.67;;;7.17;;
6564;SDS011;3316;44.118;27.258;2024-02-26T08:45:36;12.57;;;6.93;;
6564;SDS011;3316;44.118;27.258;2024-02-26T08:48:01;16.00;;;6.67;;
6564;SDS011;3316;44.118;27.258;2024-02-26T08:50:27;13.13;;;6.57;;
6564;SDS011;3316;44.118;27.258;2024-02-26T08:52:52;13.87;;;6.90;;
6564;SDS011;3316;44.118;27.258;2024-02-26T08:55:18;10.87;;;7.37;;
6564;SDS011;3316;44.118;27.258;2024-02-26T08:57:44;14.38;;;6.85;;
6564;SDS011;3316;44.118;27.258;2024-02-26T09:00:10;13.05;;;6.53;;
6564;SDS011;3316;44.118;27.258;2024-02-26T09:02:36;13.00;;;7.30;;
6564;SDS011;3316;44.118;27.258;2024-02-26T09:05:04;16.58;;;6.60;;
6564;SDS011;3316;44.118;27.258;2024-02-26T09:07:30;11.50;;;5.63;;
6564;SDS011;3316;44.118;27.258;2024-02-26T09:09:56;16.73;;;7.90;;
6564;SDS011;3316;44.118;27.258;2024-02-26T09:12:22;15.27;;;8.07;;
6564;SDS011;3316;44.118;27.258;2024-02-26T09:14:47;12.73;;;7.23;;
6564;SDS011;3316;44.118;27.258;2024-02-26T09:17:13;12.13;;;6.20;;
6564;SDS011;3316;44.118;27.258;2024-02-26T09:19:38;16.42;;;7.10;;
6564;SDS011;3316;44.118;27.258;2024-02-26T09:22:04;16.50;;;8.07;;
6564;SDS011;3316;44.118;27.258;2024-02-26T09:24:29;19.73;;;7.78;;
6564;SDS011;3316;44.118;27.258;2024-02-26T09:26:55;12.88;;;8.00;;
6564;SDS011;3316;44.118;27.258;2024-02-26T09:29:20;12.65;;;5.32;;
6564;SDS011;3316;44.118;27.258;2024-02-26T09:31:46;13.60;;;6.72;;
6564;SDS011;3316;44.118;27.258;2024-02-26T09:34:14;11.82;;;6.10;;
6564;SDS011;3316;44.118;27.258;2024-02-26T09:36:40;12.45;;;7.10;;
6564;SDS011;3316;44.118;27.258;2024-02-26T09:39:05;13.05;;;5.97;;
6564;SDS011;3316;44.118;27.258;2024-02-26T09:41:33;13.25;;;6.15;;
6564;SDS011;3316;44.118;27.258;2024-02-26T09:43:59;11.45;;;6.53;;
6564;SDS011;3316;44.118;27.258;2024-02-26T09:46:28;14.52;;;5.65;;
6564;SDS011;3316;44.118;27.258;2024-02-26T09:48:55;9.43;;;4.97;;
6564;SDS011;3316;44.118;27.258;2024-02-26T09:51:22;11.67;;;5.90;;
6564;SDS011;3316;44.118;27.258;2024-02-26T09:53:52;20.98;;;7.18;;
6564;SDS011;3316;44.118;27.258;2024-02-26T09:56:18;11.77;;;5.57;;
6564;SDS011;3316;44.118;27.258;2024-02-26T09:58:45;11.90;;;6.57;;
6564;SDS011;3316;44.118;27.258;2024-02-26T10:01:16;8.98;;;4.25;;
6564;SDS011;3316;44.118;27.258;2024-02-26T10:03:43;14.80;;;6.15;;
6564;SDS011;3316;44.118;27.258;2024-02-26T10:06:10;8.43;;;5.30;;
6564;SDS011;3316;44.118;27.258;2024-02-26T10:08:38;11.50;;;5.45;;
6564;SDS011;3316;44.118;27.258;2024-02-26T10:11:05;8.93;;;4.80;;
6564;SDS011;3316;44.118;27.258;2024-02-26T10:13:33;10.32;;;3.90;;
6564;SDS011;3316;44.118;27.258;2024-02-26T10:16:01;6.95;;;4.18;;
6564;SDS011;3316;44.118;27.258;2024-02-26T10:18:44;9.07;;;5.05;;
6564;SDS011;3316;44.118;27.258;2024-02-26T10:21:13;9.88;;;4.00;;
6564;SDS011;3316;44.118;27.258;2024-02-26T10:23:39;8.47;;;4.17;;
6564;SDS011;3316;44.118;27.258;2024-02-26T10:26:04;6.97;;;4.57;;
6564;SDS011;3316;44.118;27.258;2024-02-26T10:28:30;8.80;;;4.57;;
6564;SDS011;3316;44.118;27.258;2024-02-26T10:30:55;8.95;;;4.90;;
6564;SDS011;3316;44.118;27.258;2024-02-26T10:33:21;8.43;;;4.37;;
6564;SDS011;3316;44.118;27.258;2024-02-26T10:35:47;11.37;;;5.03;;
6564;SDS011;3316;44.118;27.258;2024-02-26T10:38:15;9.35;;;4.80;;
6564;SDS011;3316;44.118;27.258;2024-02-26T10:40:45;8.00;;;3.87;;
6564;SDS011;3316;44.118;27.258;2024-02-26T10:43:11;12.25;;;5.78;;
6564;SDS011;3316;44.118;27.258;2024-02-26T10:45:39;9.00;;;4.97;;
6564;SDS011;3316;44.118;27.258;2024-02-26T10:48:11;9.02;;;4.25;;
6564;SDS011;3316;44.118;27.258;2024-02-26T10:50:38;6.65;;;3.97;;
6564;SDS011;3316;44.118;27.258;2024-02-26T10:53:04;7.55;;;3.83;;
6564;SDS011;3316;44.118;27.258;2024-02-26T10:55:48;8.90;;;4.00;;
6564;SDS011;3316;44.118;27.258;2024-02-26T10:58:17;7.60;;;4.30;;
6564;SDS011;3316;44.118;27.258;2024-02-26T11:00:43;8.35;;;4.28;;
6564;SDS011;3316;44.118;27.258;2024-02-26T11:03:12;7.63;;;4.27;;
6564;SDS011;3316;44.118;27.258;2024-02-26T11:05:41;10.45;;;4.57;;
6564;SDS011;3316;44.118;27.258;2024-02-26T11:08:09;8.55;;;4.10;;
6564;SDS011;3316;44.118;27.258;2024-02-26T11:10:36;8.18;;;4.35;;
6564;SDS011;3316;44.118;27.258;2024-02-26T11:13:03;8.35;;;5.38;;
6564;SDS011;3316;44.118;27.258;2024-02-26T11:15:30;13.88;;;5.68;;
6564;SDS011;3316;44.118;27.258;2024-02-26T11:17:58;5.63;;;4.30;;
6564;SDS011;3316;44.118;27.258;2024-02-26T11:20:24;12.60;;;5.80;;
6564;SDS011;3316;44.118;27.258;2024-02-26T11:22:53;7.38;;;4.13;;
6564;SDS011;3316;44.118;27.258;2024-02-26T11:25:18;6.70;;;4.03;;
6564;SDS011;3316;44.118;27.258;2024-02-26T11:27:56;8.27;;;4.40;;
6564;SDS011;3316;44.118;27.258;2024-02-26T11:30:27;7.53;;;5.57;;
6564;SDS011;3316;44.118;27.258;2024-02-26T11:32:56;8.18;;;4.22;;
6564;SDS011;3316;44.118;27.258;2024-02-26T11:35:22;6.45;;;4.10;;
6564;SDS011;3316;44.118;27.258;2024-02-26T11:37:56;9.02;;;4.30;;
6564;SDS011;3316;44.118;27.258;2024-02-26T11:40:26;6.78;;;4.00;;
6564;SDS011;3316;44.118;27.258;2024-02-26T11:42:51;7.40;;;5.00;;
6564;SDS011;3316;44.118;27.258;2024-02-26T11:48:21;5.18;;;4.10;;
6564;SDS011;3316;44.118;27.258;2024-02-26T11:50:52;6.13;;;4.63;;
6564;SDS011;3316;44.118;27.258;2024-02-26T11:58:46;7.80;;;3.97;;
6564;SDS011;3316;44.118;27.258;2024-02-26T12:04:24;7.00;;;4.07;;
6564;SDS011;3316;44.118;27.258;2024-02-26T12:07:00;6.30;;;3.00;;
6564;SDS011;3316;44.118;27.258;2024-02-26T12:09:37;8.30;;;4.72;;
6564;SDS011;3316;44.118;27.258;2024-02-26T12:12:07;6.80;;;4.67;;
6564;SDS011;3316;44.118;27.258;2024-02-26T12:14:34;7.47;;;4.53;;
6564;SDS011;3316;44.118;27.258;2024-02-26T12:17:20;11.00;;;4.93;;
6564;SDS011;3316;44.118;27.258;2024-02-26T12:19:48;8.52;;;5.10;;
6564;SDS011;3316;44.118;27.258;2024-02-26T12:22:14;7.60;;;4.70;;
6564;SDS011;3316;44.118;27.258;2024-02-26T12:24:41;9.82;;;5.75;;
6564;SDS011;3316;44.118;27.258;2024-02-26T12:27:08;12.47;;;5.97;;
6564;SDS011;3316;44.118;27.258;2024-02-26T12:29:34;9.35;;;4.97;;
6564;SDS011;3316;44.118;27.258;2024-02-26T12:32:00;17.23;;;5.82;;
6564;SDS011;3316;44.118;27.258;2024-02-26T12:34:26;16.98;;;5.72;;
6564;SDS011;3316;44.118;27.258;2024-02-26T12:36:53;13.27;;;5.60;;
6564;SDS011;3316;44.118;27.258;2024-02-26T12:39:19;12.03;;;5.67;;
6564;SDS011;3316;44.118;27.258;2024-02-26T12:41:45;10.97;;;5.17;;
6564;SDS011;3316;44.118;27.258;2024-02-26T12:44:15;11.23;;;5.10;;
6564;SDS011;3316;44.118;27.258;2024-02-26T12:46:41;9.23;;;5.30;;
6564;SDS011;3316;44.118;27.258;2024-02-26T12:49:07;13.50;;;5.37;;
6564;SDS011;3316;44.118;27.258;2024-02-26T12:51:33;12.60;;;5.33;;
6564;SDS011;3316;44.118;27.258;2024-02-26T12:54:00;14.93;;;6.00;;
6564;SDS011;3316;44.118;27.258;2024-02-26T12:56:26;17.83;;;6.80;;
6564;SDS011;3316;44.118;27.258;2024-02-26T12:58:53;14.03;;;6.17;;
6564;SDS011;3316;44.118;27.258;2024-02-26T13:01:22;13.20;;;5.10;;
6564;SDS011;3316;44.118;27.258;2024-02-26T13:03:50;11.93;;;5.73;;
6564;SDS011;3316;44.118;27.258;2024-02-26T13:06:17;18.93;;;6.27;;
6564;SDS011;3316;44.118;27.258;2024-02-26T13:08:44;15.00;;;4.70;;
6564;SDS011;3316;44.118;27.258;2024-02-26T13:11:11;12.13;;;5.07;;
6564;SDS011;3316;44.118;27.258;2024-02-26T13:13:37;9.00;;;4.53;;
6564;SDS011;3316;44.118;27.258;2024-02-26T13:16:03;9.98;;;4.55;;
6564;SDS011;3316;44.118;27.258;2024-02-26T13:18:31;10.07;;;4.60;;
6564;SDS011;3316;44.118;27.258;2024-02-26T13:21:07;8.17;;;3.57;;
6564;SDS011;3316;44.118;27.258;2024-02-26T13:23:37;14.00;;;5.20;;
6564;SDS011;3316;44.118;27.258;2024-02-26T13:26:04;15.80;;;5.77;;
6564;SDS011;3316;44.118;27.258;2024-02-26T13:28:29;13.47;;;6.43;;
6564;SDS011;3316;44.118;27.258;2024-02-26T13:30:55;20.63;;;7.33;;
6564;SDS011;3316;44.118;27.258;2024-02-26T13:33:22;12.33;;;6.13;;
6564;SDS011;3316;44.118;27.258;2024-02-26T13:35:48;12.23;;;5.70;;
6564;SDS011;3316;44.118;27.258;2024-02-26T13:38:14;13.37;;;6.10;;
6564;SDS011;3316;44.118;27.258;2024-02-26T13:40:39;12.87;;;4.13;;
6564;SDS011;3316;44.118;27.258;2024-02-26T13:43:05;9.40;;;4.83;;
6564;SDS011;3316;44.118;27.258;2024-02-26T13:45:35;11.77;;;4.70;;
6564;SDS011;3316;44.118;27.258;2024-02-26T13:48:03;12.80;;;5.47;;
6564;SDS011;3316;44.118;27.258;2024-02-26T13:50:29;11.00;;;6.30;;
6564;SDS011;3316;44.118;27.258;2024-02-26T13:52:55;10.47;;;5.97;;
6564;SDS011;3316;44.118;27.258;2024-02-26T13:55:27;13.13;;;6.50;;
6564;SDS011;3316;44.118;27.258;2024-02-26T13:57:55;13.53;;;6.13;;
6564;SDS011;3316;44.118;27.258;2024-02-26T14:00:22;8.67;;;4.60;;
6564;SDS011;3316;44.118;27.258;2024-02-26T14:02:47;10.53;;;5.40;;
6564;SDS011;3316;44.118;27.258;2024-02-26T14:05:13;11.57;;;5.87;;
6564;SDS011;3316;44.118;27.258;2024-02-26T14:07:39;7.27;;;3.63;;
6564;SDS011;3316;44.118;27.258;2024-02-26T14:10:05;9.77;;;4.37;;
6564;SDS011;3316;44.118;27.258;2024-02-26T14:12:31;10.10;;;3.93;;
6564;SDS011;3316;44.118;27.258;2024-02-26T14:14:56;12.80;;;4.50;;
6564;SDS011;3316;44.118;27.258;2024-02-26T14:17:24;9.97;;;5.27;;
6564;SDS011;3316;44.118;27.258;2024-02-26T14:19:49;13.07;;;5.07;;
6564;SDS011;3316;44.118;27.258;2024-02-26T14:22:15;11.40;;;5.20;;
6564;SDS011;3316;44.118;27.258;2024-02-26T14:24:41;12.97;;;6.80;;
6564;SDS011;3316;44.118;27.258;2024-02-26T14:27:10;8.60;;;4.83;;
6564;SDS011;3316;44.118;27.258;2024-02-26T14:29:40;10.43;;;5.03;;
6564;SDS011;3316;44.118;27.258;2024-02-26T14:32:08;10.10;;;4.17;;
6564;SDS011;3316;44.118;27.258;2024-02-26T14:34:34;14.80;;;6.43;;
6564;SDS011;3316;44.118;27.258;2024-02-26T14:36:59;11.00;;;6.07;;
6564;SDS011;3316;44.118;27.258;2024-02-26T14:39:24;14.73;;;6.83;;
6564;SDS011;3316;44.118;27.258;2024-02-26T14:41:51;19.30;;;8.00;;
6564;SDS011;3316;44.118;27.258;2024-02-26T14:44:16;20.00;;;7.13;;
6564;SDS011;3316;44.118;27.258;2024-02-26T14:46:42;14.47;;;7.30;;
6564;SDS011;3316;44.118;27.258;2024-02-26T14:49:07;15.20;;;7.50;;